createdAt,value
2019-02-15T00:00:52.202Z,85.83
2019-02-15T00:03:33.918Z,85.81
2019-02-15T00:06:04.108Z,85.85
2019-02-15T00:08:33.496Z,85.91
2019-02-15T00:11:02.911Z,86.01
2019-02-15T00:13:35.175Z,86.02
2019-02-15T00:16:04.564Z,85.99
2019-02-15T00:18:52.897Z,86.04
2019-02-15T00:21:32.970Z,86.12
2019-02-15T00:24:21.510Z,86.15
2019-02-15T00:26:51.177Z,86.07
2019-02-15T00:29:20.939Z,86.14
2019-02-15T00:31:50.491Z,86.26
2019-02-15T00:34:20.124Z,86.20
2019-02-15T00:36:49.619Z,86.13
2019-02-15T00:39:19.161Z,86.14
2019-02-15T00:41:48.575Z,86.23
2019-02-15T00:44:17.982Z,86.26
2019-02-15T00:47:06.312Z,86.26
2019-02-15T00:50:13.807Z,86.25
2019-02-15T00:55:49.737Z,86.18
2019-02-15T00:58:38.008Z,86.26
2019-02-15T01:01:26.335Z,86.25
2019-02-15T01:04:13.956Z,86.25
2019-02-15T01:07:07.245Z,86.33
2019-02-15T01:09:55.532Z,86.47
2019-02-15T01:12:28.802Z,86.54
2019-02-15T01:15:18.639Z,86.58
2019-02-15T01:18:07.064Z,86.49
2019-02-15T01:23:31.804Z,86.30
2019-02-15T01:29:08.561Z,86.36
2019-02-15T01:34:37.954Z,86.34
2019-02-15T01:37:27.405Z,86.36
2019-02-15T01:40:15.912Z,86.35
2019-02-15T01:42:52.185Z,86.30
2019-02-15T01:45:40.831Z,86.22
2019-02-15T01:48:21.513Z,86.21
2019-02-15T01:50:54.105Z,86.19
2019-02-15T01:53:23.637Z,86.10
2019-02-15T01:55:53.546Z,86.10
2019-02-15T02:01:16.814Z,86.02
2019-02-15T02:03:46.715Z,86.09
2019-02-15T02:06:35.100Z,86.02
2019-02-15T02:09:15.796Z,86.10
2019-02-15T02:11:45.666Z,86.10
2019-02-15T02:14:15.190Z,86.00
2019-02-15T02:16:47.766Z,85.93
2019-02-15T02:19:36.209Z,85.89
2019-02-15T02:22:05.703Z,85.90
2019-02-15T02:24:35.083Z,86.04
2019-02-15T02:27:23.502Z,86.07
2019-02-15T02:29:53.057Z,86.10
2019-02-15T02:32:22.814Z,86.11
2019-02-15T02:35:11.191Z,86.04
2019-02-15T02:37:40.754Z,85.99
2019-02-15T02:40:10.191Z,85.95
2019-02-15T02:42:39.655Z,86.12
2019-02-15T02:45:09.202Z,86.21
2019-02-15T02:47:41.472Z,86.26
2019-02-15T02:50:10.928Z,86.36
2019-02-15T02:52:40.320Z,86.40
2019-02-15T02:55:09.796Z,86.44
2019-02-15T03:00:14.334Z,86.44
2019-02-15T03:02:55.343Z,86.35
2019-02-15T03:05:25.020Z,86.43
2019-02-15T03:07:54.503Z,86.40
2019-02-15T03:10:24.006Z,86.39
2019-02-15T03:12:56.758Z,86.47
2019-02-15T03:15:26.191Z,86.48
2019-02-15T03:17:55.642Z,86.41
2019-02-15T03:20:31.264Z,86.51
2019-02-15T03:23:09.067Z,86.52
2019-02-15T03:25:40.146Z,86.63
2019-02-15T03:28:09.524Z,86.60
2019-02-15T03:30:38.934Z,86.58
2019-02-15T03:33:08.592Z,86.64
2019-02-15T03:38:47.056Z,86.92
2019-02-15T03:41:38.434Z,87.16
2019-02-15T03:44:07.914Z,87.19
2019-02-15T03:46:37.314Z,87.35
2019-02-15T03:49:06.834Z,87.36
2019-02-15T03:51:36.350Z,87.49
2019-02-15T03:54:05.770Z,87.65
2019-02-15T03:56:40.724Z,87.75
2019-02-15T03:59:29.281Z,87.76
2019-02-15T04:01:59.306Z,87.88
2019-02-15T04:04:28.763Z,87.92
2019-02-15T04:06:58.266Z,87.90
2019-02-15T04:09:46.889Z,87.82
2019-02-15T04:12:16.641Z,87.94
2019-02-15T04:14:49.403Z,87.99
2019-02-15T04:17:18.916Z,88.11
2019-02-15T04:19:48.351Z,88.22
2019-02-15T04:22:38.168Z,88.27
2019-02-15T04:25:07.786Z,88.37
2019-02-15T04:27:37.241Z,88.43
2019-02-15T04:30:07.511Z,88.50
2019-02-15T04:32:36.923Z,88.43
2019-02-15T04:35:07.582Z,88.21
2019-02-15T04:37:37.050Z,87.98
2019-02-15T04:46:17.249Z,87.87
2019-02-15T04:49:05.786Z,87.90
2019-02-15T04:51:35.217Z,88.07
2019-02-15T04:54:23.529Z,88.21
2019-02-15T04:57:00.759Z,88.36
2019-02-15T04:59:30.350Z,88.41
2019-02-15T05:01:59.887Z,88.44
2019-02-15T05:04:40.518Z,88.41
2019-02-15T05:07:10.002Z,88.53
2019-02-15T05:09:39.408Z,88.64
2019-02-15T05:12:08.839Z,88.75
2019-02-15T05:14:55.138Z,88.92
2019-02-15T05:17:24.662Z,88.95
2019-02-15T05:19:54.071Z,88.84
2019-02-15T05:22:23.678Z,88.68
2019-02-15T05:24:53.612Z,88.70
2019-02-15T05:27:23.434Z,88.71
2019-02-15T05:30:13.918Z,88.71
2019-02-15T05:32:45.262Z,88.63
2019-02-15T05:35:14.689Z,88.38
2019-02-15T05:37:44.188Z,88.49
2019-02-15T05:40:13.744Z,88.57
2019-02-15T05:42:43.139Z,88.54
2019-02-15T05:45:12.739Z,88.53
2019-02-15T05:47:42.280Z,88.39
2019-02-15T05:50:11.669Z,88.28
2019-02-15T05:52:55.586Z,88.35
2019-02-15T05:55:12.697Z,88.32
2019-02-15T05:57:42.127Z,88.30
2019-02-15T06:00:11.581Z,88.36
2019-02-15T06:02:41.028Z,88.32
2019-02-15T06:05:10.520Z,88.36
2019-02-15T06:07:39.984Z,88.34
2019-02-15T06:10:09.570Z,88.41
2019-02-15T06:12:39.016Z,88.38
2019-02-15T06:15:15.115Z,88.37
2019-02-15T06:17:39.579Z,88.34
2019-02-15T06:20:09.158Z,88.27
2019-02-15T06:22:38.669Z,88.21
2019-02-15T06:25:08.227Z,88.16
2019-02-15T06:27:37.581Z,88.21
2019-02-15T06:30:08.226Z,88.29
2019-02-15T06:32:37.631Z,88.28
2019-02-15T06:35:18.157Z,88.32
2019-02-15T06:37:47.796Z,88.32
2019-02-15T06:40:17.344Z,88.25
2019-02-15T06:42:47.084Z,88.30
2019-02-15T06:45:25.088Z,88.31
2019-02-15T06:50:27.412Z,88.27
2019-02-15T06:52:56.940Z,88.31
2019-02-15T06:55:26.331Z,88.22
2019-02-15T06:57:55.758Z,88.26
2019-02-15T07:03:51.429Z,88.26
2019-02-15T07:06:21.614Z,88.18
2019-02-15T07:08:51.531Z,88.12
2019-02-15T07:11:21.429Z,88.01
2019-02-15T07:13:53.239Z,87.97
2019-02-15T07:16:22.826Z,87.94
2019-02-15T07:18:52.692Z,87.92
2019-02-15T07:21:22.574Z,87.88
2019-02-15T07:23:54.243Z,87.87
2019-02-15T07:26:23.840Z,87.84
2019-02-15T07:29:32.819Z,87.79
2019-02-15T07:32:02.341Z,87.59
2019-02-15T07:37:20.296Z,87.35
2019-02-15T07:39:50.193Z,87.41
2019-02-15T07:42:38.582Z,87.41
2019-02-15T07:45:09.220Z,87.26
2019-02-15T07:47:38.937Z,87.23
2019-02-15T07:50:10.841Z,86.90
2019-02-15T07:52:40.265Z,86.65
2019-02-15T07:55:09.694Z,86.38
2019-02-15T07:57:39.228Z,86.25
2019-02-15T08:00:10.807Z,86.12
2019-02-15T08:02:40.231Z,86.15
2019-02-15T08:07:44.948Z,85.66
2019-02-15T08:12:59.943Z,85.33
2019-02-15T08:15:41.120Z,85.32
2019-02-15T08:18:10.596Z,85.31
2019-02-15T08:20:40.029Z,85.41
2019-02-15T08:23:09.437Z,85.42
2019-02-15T08:25:38.958Z,85.30
2019-02-15T08:28:08.361Z,85.19
2019-02-15T08:30:37.868Z,85.41
2019-02-15T08:33:07.351Z,85.43
2019-02-15T08:35:36.765Z,85.47
2019-02-15T08:38:06.231Z,85.44
2019-02-15T08:40:37.379Z,85.47
2019-02-15T08:46:03.349Z,85.79
2019-02-15T08:48:32.332Z,85.87
2019-02-15T08:51:01.751Z,85.96
2019-02-15T08:53:33.449Z,85.99
2019-02-15T08:56:02.949Z,85.87
2019-02-15T08:58:32.439Z,85.67
2019-02-15T09:01:21.427Z,85.50
2019-02-15T09:03:51.018Z,85.47
2019-02-15T09:06:22.362Z,85.33
2019-02-15T09:11:28.247Z,85.15
2019-02-15T09:16:38.244Z,85.14
2019-02-15T09:19:10.654Z,84.98
2019-02-15T09:21:40.304Z,84.85
2019-02-15T09:24:12.648Z,84.68
2019-02-15T09:26:42.072Z,84.46
2019-02-15T09:29:11.574Z,84.10
2019-02-15T09:31:41.088Z,83.89
2019-02-15T09:34:10.560Z,83.58
2019-02-15T09:36:40.035Z,83.28
2019-02-15T09:39:09.518Z,83.07
2019-02-15T09:41:39.047Z,82.70
2019-02-15T09:44:27.496Z,82.39
2019-02-15T09:46:57.222Z,81.99
2019-02-15T09:49:26.609Z,81.60
2019-02-15T09:51:56.062Z,81.32
2019-02-15T09:54:25.461Z,81.14
2019-02-15T09:56:54.829Z,80.77
2019-02-15T09:59:24.348Z,80.46
2019-02-15T10:02:12.660Z,79.95
2019-02-15T10:04:42.217Z,79.84
2019-02-15T10:07:11.685Z,79.75
2019-02-15T10:09:41.171Z,79.60
2019-02-15T10:12:10.600Z,79.43
2019-02-15T10:14:39.993Z,79.45
2019-02-15T10:17:09.409Z,79.33
2019-02-15T10:19:39.380Z,79.32
2019-02-15T10:22:08.930Z,79.21
2019-02-15T10:24:38.342Z,78.99
2019-02-15T10:27:07.786Z,78.98
2019-02-15T10:29:37.204Z,78.98
2019-02-15T10:32:06.598Z,78.42
2019-02-15T10:34:36.132Z,77.92
2019-02-15T10:37:07.488Z,77.76
2019-02-15T10:39:36.919Z,77.73
2019-02-15T10:42:06.423Z,77.54
2019-02-15T10:44:35.892Z,77.45
2019-02-15T10:47:13.618Z,76.72
2019-02-15T10:49:36.764Z,76.44
2019-02-15T10:52:06.375Z,76.38
2019-02-15T10:54:35.776Z,76.01
2019-02-15T10:57:05.268Z,75.61
2019-02-15T10:59:34.729Z,75.48
2019-02-15T11:02:04.179Z,75.02
2019-02-15T11:04:33.694Z,74.29
2019-02-15T11:07:03.094Z,74.03
2019-02-15T11:09:32.497Z,73.59
2019-02-15T11:12:01.983Z,73.53
2019-02-15T11:14:31.474Z,73.08
2019-02-15T11:17:03.057Z,73.06
2019-02-15T11:19:32.162Z,72.36
2019-02-15T11:22:02.170Z,72.22
2019-02-15T11:24:31.675Z,72.21
2019-02-15T11:27:01.185Z,71.90
2019-02-15T11:29:30.591Z,71.40
2019-02-15T11:31:59.992Z,71.41
2019-02-15T11:37:04.559Z,70.32
2019-02-15T11:39:34.087Z,70.49
2019-02-15T11:42:03.697Z,70.98
2019-02-15T11:44:33.141Z,70.50
2019-02-15T11:47:02.607Z,70.24
2019-02-15T11:49:32.082Z,70.43
2019-02-15T11:52:03.751Z,70.57
2019-02-15T11:54:33.160Z,70.50
2019-02-15T11:57:02.587Z,70.65
2019-02-15T11:59:32.601Z,70.36
2019-02-15T12:02:06.101Z,70.25
2019-02-15T12:04:34.887Z,69.89
2019-02-15T12:07:04.311Z,68.80
2019-02-15T12:09:33.830Z,69.34
2019-02-15T12:12:17.463Z,68.79
2019-02-15T12:14:34.863Z,68.39
2019-02-15T12:19:58.333Z,68.23
2019-02-15T12:22:38.937Z,67.65
2019-02-15T12:25:08.507Z,66.69
2019-02-15T12:27:37.905Z,67.32
2019-02-15T12:30:08.445Z,67.19
2019-02-15T12:32:37.939Z,67.32
2019-02-15T12:35:07.829Z,67.80
2019-02-15T12:37:37.330Z,67.20
2019-02-15T12:40:07.164Z,66.95
2019-02-15T12:42:36.567Z,66.80
2019-02-15T12:45:06.460Z,66.49
2019-02-15T12:47:35.842Z,66.43
2019-02-15T12:50:06.366Z,66.87
2019-02-15T12:52:36.025Z,66.53
2019-02-15T12:55:05.538Z,66.60
2019-02-15T12:57:35.005Z,66.62
2019-02-15T13:00:05.266Z,66.66
2019-02-15T13:02:34.697Z,66.50
2019-02-15T13:05:04.197Z,66.23
2019-02-15T13:07:53.525Z,66.11
2019-02-15T13:13:20.530Z,65.67
2019-02-15T13:16:10.780Z,65.66
2019-02-15T13:18:40.387Z,65.64
2019-02-15T13:21:09.833Z,66.02
2019-02-15T13:23:39.225Z,65.96
2019-02-15T13:26:09.038Z,65.57
2019-02-15T13:28:38.480Z,65.63
2019-02-15T13:31:07.829Z,65.03
2019-02-15T13:33:37.259Z,65.29
2019-02-15T13:36:07.069Z,64.69
2019-02-15T13:38:36.447Z,64.60
2019-02-15T13:41:06.642Z,64.55
2019-02-15T13:43:58.246Z,64.52
2019-02-15T13:46:27.889Z,64.19
2019-02-15T13:48:57.299Z,63.53
2019-02-15T13:51:26.690Z,62.44
2019-02-15T13:56:31.580Z,62.13
2019-02-15T13:59:15.321Z,61.86
2019-02-15T14:01:44.885Z,61.54
2019-02-15T14:04:14.352Z,61.47
2019-02-15T14:07:04.376Z,61.33
2019-02-15T14:09:33.951Z,61.63
2019-02-15T14:12:03.349Z,61.50
2019-02-15T14:14:32.819Z,61.87
2019-02-15T14:17:02.306Z,61.93
2019-02-15T14:19:34.467Z,61.71
2019-02-15T14:22:04.082Z,61.33
2019-02-15T14:24:33.582Z,61.05
2019-02-15T14:27:02.991Z,60.60
2019-02-15T14:29:46.562Z,60.42
2019-02-15T14:32:15.705Z,60.71
2019-02-15T14:34:45.260Z,60.55
2019-02-15T14:37:14.826Z,60.67
2019-02-15T14:39:44.289Z,60.81
2019-02-15T14:42:13.808Z,60.44
2019-02-15T14:44:43.271Z,60.26
2019-02-15T14:47:12.686Z,60.03
2019-02-15T14:49:42.249Z,59.72
2019-02-15T14:52:25.192Z,59.89
2019-02-15T14:54:54.755Z,59.99
2019-02-15T14:57:24.323Z,59.63
2019-02-15T14:59:53.923Z,58.87
2019-02-15T15:02:23.521Z,58.86
2019-02-15T15:04:53.058Z,58.78
2019-02-15T15:07:22.628Z,58.77
2019-02-15T15:09:52.371Z,58.35
2019-02-15T15:12:22.011Z,58.22
2019-02-15T15:14:51.539Z,58.26
2019-02-15T15:17:21.272Z,58.56
2019-02-15T15:19:50.777Z,58.54
2019-02-15T15:22:20.531Z,58.55
2019-02-15T15:24:52.376Z,58.91
2019-02-15T15:27:21.780Z,58.93
2019-02-15T15:29:51.412Z,59.56
2019-02-15T15:32:21.206Z,59.46
2019-02-15T15:35:02.877Z,59.63
2019-02-15T15:37:32.525Z,59.82
2019-02-15T15:40:01.909Z,59.89
2019-02-15T15:42:31.801Z,60.01
2019-02-15T15:45:01.275Z,60.30
2019-02-15T15:47:33.224Z,60.16
2019-02-15T15:50:02.545Z,60.29
2019-02-15T15:52:32.034Z,60.59
2019-02-15T15:55:01.427Z,60.62
2019-02-15T15:57:30.854Z,60.76
2019-02-15T16:00:00.437Z,60.93
2019-02-15T16:02:29.858Z,61.11
2019-02-15T16:04:59.273Z,61.19
2019-02-15T16:07:28.755Z,61.18
2019-02-15T16:09:58.188Z,60.89
2019-02-15T16:12:27.606Z,60.93
2019-02-15T16:14:57.023Z,60.88
2019-02-15T16:17:29.441Z,60.86
2019-02-15T16:19:58.894Z,60.74
2019-02-15T16:22:28.644Z,60.64
2019-02-15T16:24:58.284Z,60.81
2019-02-15T16:27:27.765Z,60.81
2019-02-15T16:29:57.346Z,60.53
2019-02-15T16:32:26.928Z,60.66
2019-02-15T16:34:56.325Z,60.62
2019-02-15T16:37:25.990Z,60.46
2019-02-15T16:42:48.975Z,59.91
2019-02-15T16:45:18.443Z,59.96
2019-02-15T16:47:47.892Z,59.78
2019-02-15T16:50:17.413Z,59.69
2019-02-15T16:55:35.357Z,59.33
2019-02-15T16:58:04.792Z,59.31
2019-02-15T17:00:34.221Z,59.09
2019-02-15T17:03:03.622Z,59.15
2019-02-15T17:05:33.836Z,58.87
2019-02-15T17:08:03.346Z,58.73
2019-02-15T17:10:33.211Z,58.45
2019-02-15T17:13:02.689Z,58.60
2019-02-15T17:15:51.073Z,58.78
2019-02-15T17:18:20.780Z,58.23
2019-02-15T17:20:50.235Z,58.33
2019-02-15T17:25:54.920Z,58.20
2019-02-15T17:28:30.936Z,58.25
2019-02-15T17:31:00.332Z,58.23
2019-02-15T17:33:30.194Z,58.11
2019-02-15T17:35:59.678Z,58.17
2019-02-15T17:38:29.131Z,58.17
2019-02-15T17:40:58.571Z,58.45
2019-02-15T17:43:28.807Z,58.40
2019-02-15T17:46:12.405Z,58.57
2019-02-15T17:48:29.530Z,58.61
2019-02-15T17:50:58.946Z,58.66
2019-02-15T17:53:28.660Z,58.75
2019-02-15T17:55:58.125Z,58.85
2019-02-15T17:58:27.588Z,58.79
2019-02-15T18:00:57.268Z,59.06
2019-02-15T18:03:27.061Z,59.08
2019-02-15T18:05:56.615Z,59.04
2019-02-15T18:08:26.042Z,59.12
2019-02-15T18:10:55.835Z,59.11
2019-02-15T18:13:27.227Z,59.23
2019-02-15T18:15:56.662Z,59.31
2019-02-15T18:18:26.146Z,59.41
2019-02-15T18:20:55.698Z,59.54
2019-02-15T18:23:25.117Z,59.55
2019-02-15T18:25:54.810Z,59.75
2019-02-15T18:28:24.392Z,59.85
2019-02-15T18:30:54.075Z,60.05
2019-02-15T18:33:23.509Z,60.27
2019-02-15T18:35:53.058Z,60.52
2019-02-15T18:38:41.742Z,60.47
2019-02-15T18:41:13.577Z,60.55
2019-02-15T18:43:42.549Z,60.76
2019-02-15T18:46:11.921Z,60.95
2019-02-15T18:48:41.401Z,61.22
2019-02-15T18:51:10.835Z,61.43
2019-02-15T18:53:40.233Z,61.56
2019-02-15T18:56:09.634Z,61.78
2019-02-15T18:58:39.122Z,61.89
2019-02-15T19:01:08.827Z,62.05
2019-02-15T19:03:41.936Z,62.17
2019-02-15T19:06:11.376Z,62.42
2019-02-15T19:08:40.833Z,62.58
2019-02-15T19:11:10.553Z,62.74
2019-02-15T19:13:40.010Z,62.86
2019-02-15T19:16:09.459Z,63.02
2019-02-15T19:18:39.024Z,63.27
2019-02-15T19:21:08.656Z,63.38
2019-02-15T19:23:38.063Z,63.49
2019-02-15T19:26:07.713Z,63.58
2019-02-15T19:28:37.140Z,63.75
2019-02-15T19:31:06.572Z,63.82
2019-02-15T19:33:48.086Z,63.94
2019-02-15T19:39:07.390Z,64.05
2019-02-15T19:41:36.869Z,64.22
2019-02-15T19:44:06.277Z,64.36
2019-02-15T19:46:35.847Z,64.51
2019-02-15T19:49:05.259Z,64.60
2019-02-15T19:51:35.922Z,64.58
2019-02-15T19:56:53.370Z,64.60
2019-02-15T19:59:23.115Z,64.62
2019-02-15T20:01:53.170Z,64.79
2019-02-15T20:04:22.755Z,64.86
2019-02-15T20:06:52.449Z,64.86
2019-02-15T20:09:22.147Z,64.94
2019-02-15T20:11:54.892Z,65.01
2019-02-15T20:14:24.405Z,65.08
2019-02-15T20:16:54.019Z,65.23
2019-02-15T20:19:23.530Z,65.42
2019-02-15T20:21:53.413Z,65.51
2019-02-15T20:24:23.533Z,65.62
2019-02-15T20:26:53.154Z,65.65
2019-02-15T20:29:22.730Z,65.80
2019-02-15T20:31:52.332Z,65.87
2019-02-15T20:34:22.587Z,65.83
2019-02-15T20:36:52.348Z,65.84
2019-02-15T20:39:23.880Z,66.08
2019-02-15T20:41:53.370Z,65.79
2019-02-15T20:44:23.455Z,65.89
2019-02-15T20:46:53.086Z,65.67
2019-02-15T20:49:22.805Z,65.58
2019-02-15T20:51:52.403Z,65.70
2019-02-15T20:54:25.026Z,65.57
2019-02-15T20:56:54.405Z,65.57
2019-02-15T20:59:27.195Z,65.66
2019-02-15T21:04:50.643Z,65.80
2019-02-15T21:07:20.052Z,66.02
2019-02-15T21:09:49.456Z,66.02
2019-02-15T21:12:18.895Z,66.00
2019-02-15T21:17:36.786Z,65.99
2019-02-15T21:20:08.220Z,65.84
2019-02-15T21:22:38.215Z,65.77
2019-02-15T21:25:27.915Z,65.84
2019-02-15T21:27:57.342Z,65.76
2019-02-15T21:30:26.805Z,65.81
2019-02-15T21:32:56.405Z,65.78
2019-02-15T21:35:25.890Z,65.81
2019-02-15T21:37:55.237Z,65.91
2019-02-15T21:40:26.796Z,65.94
2019-02-15T21:42:56.276Z,65.95
2019-02-15T21:45:27.320Z,66.05
2019-02-15T21:47:56.854Z,66.06
2019-02-15T21:50:26.278Z,66.18
2019-02-15T21:52:55.774Z,66.31
2019-02-15T21:55:25.234Z,66.51
2019-02-15T21:58:01.132Z,66.74
2019-02-15T22:00:37.268Z,66.80
2019-02-15T22:03:06.696Z,66.91
2019-02-15T22:05:36.094Z,67.23
2019-02-15T22:08:05.514Z,67.11
2019-02-15T22:10:44.509Z,67.11
2019-02-15T22:13:14.074Z,67.39
2019-02-15T22:15:43.608Z,67.51
2019-02-15T22:18:26.804Z,67.62
2019-02-15T22:20:44.383Z,67.75
2019-02-15T22:23:14.068Z,67.81
2019-02-15T22:25:43.993Z,67.85
2019-02-15T22:31:06.928Z,68.06
2019-02-15T22:33:36.666Z,68.06
2019-02-15T22:39:06.571Z,68.73
2019-02-15T22:44:39.386Z,68.55
2019-02-15T22:47:19.906Z,68.69
2019-02-15T22:49:49.332Z,68.69
2019-02-15T22:52:37.847Z,68.88
2019-02-15T22:55:20.101Z,69.34
2019-02-15T22:57:49.516Z,69.34
2019-02-15T23:01:02.767Z,69.30
2019-02-15T23:03:36.304Z,69.32
2019-02-15T23:06:24.862Z,69.39
2019-02-15T23:08:54.542Z,69.39
2019-02-15T23:11:41.006Z,69.47
2019-02-15T23:14:10.581Z,69.53
2019-02-15T23:16:40.043Z,69.67
2019-02-15T23:19:38.279Z,70.10
2019-02-15T23:22:04.900Z,70.10
2019-02-15T23:24:34.357Z,69.86
2019-02-15T23:27:03.741Z,70.01
2019-02-15T23:29:33.768Z,70.09
2019-02-15T23:32:03.199Z,70.17
2019-02-15T23:34:35.135Z,70.66
2019-02-15T23:37:04.566Z,70.66
2019-02-15T23:39:54.099Z,70.37
2019-02-15T23:45:36.911Z,70.20
2019-02-15T23:48:17.634Z,70.11
2019-02-15T23:53:42.912Z,69.76
2019-02-15T23:56:12.606Z,69.60
2019-02-15T23:58:42.073Z,69.53
